KOTM/OTM METAR and TAF weather

Enter ICAO airport designator
Station Type Date Time Source
KOTM METAR 2019/05/21 20:53 UTC NOAA

KOTM 212053Z AUTO 10023G32KT 6SM -RA BR OVC012 11/09 A2967 RMK AO2 PK WND 10033/2035 SLP047 P0004 60016 T01060089 58041


Station Type Date Time Source
KOTM Decoded METAR 2019/05/21 20:53 UTC NOAA

OTTUMWA INDUSTRIAL AIRPORT, IA, United States (KOTM) 41-06N 092-27W 256M
May 21, 2019 - 04:53 PM EDT / 2019.05.21 2053 UTC
Wind: from the E (100 degrees) at 26 MPH (23 KT) gusting to 37 MPH (32 KT):0
Visibility: 6 mile(s):0
Sky conditions: overcast
Weather: light rain; mist
Precipitation last hour: 0.04 inches
Temperature: 51.1 F (10.6 C)
Dew Point: 48.0 F (8.9 C)
Relative Humidity: 89%
Pressure (altimeter): 29.67 in. Hg (1004 hPa)
Pressure tendency: 0.12 inches (4.1 hPa) lower than three hours ago
ob: KOTM 212053Z AUTO 10023G32KT 6SM -RA BR OVC012 11/09 A2967 RMK AO2 PK WND 10033/2035 SLP047 P0004 60016 T01060089 58041
cycle: 21

Station Type Date Time Source
KOTM TAF 2019/05/21 18:33 UTC NOAA

TAF KOTM 211730Z 2118/2218 10024G30KT P6SM VCSH BKN016 BKN025 OVC030
FM212100 09023G31KT 4SM SHRA BR VCTS OVC010CB
FM220000 11021KT 2SM SHRA BR VCTS OVC008CB
FM220300 10015KT P6SM VCSH OVC015
FM220800 13014KT P6SM SCT035 WS020/18040KT
FM221200 16014G22KT P6SM SCT140

Example: see airport list